aviador You're here:

KGEV Decoded Metar

JEFFERSON in NC, USA
Report Time2017-08-06 08:10:00
UTC Time2017-08-22 22:24:20
Flight Rules Old
WindCalm
Visibility9999 m
Phenomena:N/A
Clouds:N/A
Expected CloudBase > 1,200 ft AGL from Temp-Dew spread
CeilingNone
Temp14°C (ISA +5)
Dew Point11°C (82% RH)
QNH1022 hPa
Density Alt3,691 ft
Elevation3,179 ft
Report Wrong Elevation
Raw Report
KGEV 060810Z AUTO 00000KT 10SM CLR 14/11 A3018 RMK AO2
T01360105=

Extra information for KGEV:More info

Metar Taf Metar & Taf Last 4 Metars F.Rules Stats Wind Profile Meteogram Temp Stats Airport Information Weather charts Add Link Nearby VenuesMetar ALERT Operation Metar Decoded Social comments

AIRNAV info for KGEV